Time;durP1;ratioP1;P1;durP2;ratioP2;P2;SDS_P1;SDS_P2;PMS_P1;PMS_P2;Temp;Humidity;BMP_temperature;BMP_pressure;BME280_temperature;BME280_humidity;BME280_pressure;Samples;Min_cycle;Max_cycle;Signal;HPM_P1;HPM_P2
2023/10/11 00:00:34;;;;;;;9.73;5.27;;;;;;;14.61;88.74;95327.31;5046260;28;20262;-46
2023/10/11 00:03:14;;;;;;;8.90;5.03;;;;;;;14.59;88.85;95324.06;5059893;28;20195;-44
2023/10/11 00:05:41;;;;;;;9.43;5.60;;;;;;;14.55;89.00;95319.22;5065968;28;20214;-44
2023/10/11 00:08:10;;;;;;;11.63;5.30;;;;;;;14.52;89.36;95318.69;5067315;28;20183;-45
2023/10/11 00:10:43;;;;;;;7.70;4.70;;;;;;;14.45;88.95;95308.13;5069500;28;20190;-42
2023/10/11 00:13:15;;;;;;;7.47;5.47;;;;;;;14.47;89.11;95320.88;5069476;28;20190;-45
2023/10/11 00:15:42;;;;;;;9.33;5.47;;;;;;;14.49;89.14;95317.22;5069661;28;20199;-44
2023/10/11 00:18:10;;;;;;;7.00;5.43;;;;;;;14.46;89.17;95320.03;5069106;28;20244;-45
2023/10/11 00:20:50;;;;;;;7.80;4.63;;;;;;;14.45;89.73;95321.00;5069651;28;20179;-44
2023/10/11 00:23:21;;;;;;;6.90;4.60;;;;;;;14.41;89.55;95321.44;5069318;28;20281;-44
2023/10/11 00:25:50;;;;;;;9.93;5.47;;;;;;;14.34;89.72;95317.84;5069735;28;20253;-43
2023/10/11 00:28:19;;;;;;;7.27;5.00;;;;;;;14.16;89.93;95300.63;5069904;28;20190;-44
2023/10/11 00:30:47;;;;;;;8.83;4.97;;;;;;;14.24;90.01;95310.97;5069274;28;20293;-46
2023/10/11 00:33:14;;;;;;;6.87;4.80;;;;;;;14.14;90.04;95310.22;5068727;28;20934;-45
2023/10/11 00:35:47;;;;;;;6.33;4.47;;;;;;;14.10;90.77;95311.47;5071423;28;20635;-44
2023/10/11 00:38:18;;;;;;;6.93;4.77;;;;;;;13.99;90.81;95309.09;5072570;28;20649;-46
2023/10/11 00:40:48;;;;;;;8.90;5.13;;;;;;;13.93;90.98;95305.31;5069289;28;20197;-45
2023/10/11 00:43:19;;;;;;;8.17;5.63;;;;;;;13.89;90.87;95311.69;5068706;28;20178;-44
2023/10/11 00:45:46;;;;;;;11.67;4.80;;;;;;;13.83;91.22;95312.28;5069496;28;20222;-44
2023/10/11 00:48:19;;;;;;;7.07;5.10;;;;;;;13.78;91.39;95311.91;5068833;28;20677;-45
2023/10/11 00:50:49;;;;;;;10.53;5.43;;;;;;;13.74;91.45;95311.38;5069398;28;20182;-43
2023/10/11 00:53:18;;;;;;;7.80;5.03;;;;;;;13.62;91.70;95298.84;5069153;28;20183;-44
2023/10/11 00:55:47;;;;;;;9.33;5.13;;;;;;;13.67;91.92;95325.72;5068854;28;20198;-45
2023/10/11 00:58:17;;;;;;;8.03;5.30;;;;;;;13.63;92.20;95324.38;5069052;28;20202;-45
2023/10/11 01:00:45;;;;;;;6.80;5.07;;;;;;;13.56;92.26;95313.06;5068524;28;20238;-45
2023/10/11 01:03:13;;;;;;;9.87;5.60;;;;;;;13.56;92.61;95318.22;5068643;28;20626;-45
2023/10/11 01:05:43;;;;;;;9.23;4.97;;;;;;;13.52;92.60;95317.69;5071133;28;20218;-43
2023/10/11 01:08:12;;;;;;;7.97;4.90;;;;;;;13.47;92.76;95312.16;5071679;28;20186;-43
2023/10/11 01:10:39;;;;;;;4.97;4.10;;;;;;;13.48;92.68;95315.53;5070893;28;20711;-44
2023/10/11 01:13:07;;;;;;;7.93;5.13;;;;;;;13.46;92.72;95314.84;5071266;28;20179;-45
2023/10/11 01:15:34;;;;;;;7.93;4.80;;;;;;;13.47;92.69;95325.00;5070633;28;20685;-44
2023/10/11 01:18:01;;;;;;;8.20;5.20;;;;;;;13.43;92.88;95313.38;5070784;28;20190;-43
2023/10/11 01:20:31;;;;;;;5.97;4.47;;;;;;;13.43;93.23;95318.53;5070949;28;20232;-43
2023/10/11 01:22:59;;;;;;;7.03;4.70;;;;;;;13.45;93.26;95314.03;5070769;28;20187;-43
2023/10/11 01:25:26;;;;;;;9.90;5.70;;;;;;;13.46;93.21;95319.97;5070466;28;20348;-44
2023/10/11 01:27:53;;;;;;;7.10;5.23;;;;;;;13.46;93.09;95322.56;5070817;28;20194;-44
2023/10/11 01:30:19;;;;;;;10.27;5.17;;;;;;;13.50;93.58;95324.69;5070624;28;20569;-43
2023/10/11 01:32:48;;;;;;;8.43;5.33;;;;;;;13.51;94.10;95328.91;5070972;28;20198;-44
2023/10/11 01:35:19;;;;;;;10.30;5.67;;;;;;;13.44;93.77;95327.03;5070501;28;20611;-45
2023/10/11 01:37:48;;;;;;;6.20;5.33;;;;;;;13.49;93.81;95341.06;5070999;28;20186;-43
2023/10/11 01:40:21;;;;;;;7.33;5.67;;;;;;;13.49;93.35;95330.00;5070327;28;20538;-43
2023/10/11 01:42:50;;;;;;;11.83;6.93;;;;;;;13.54;93.91;95338.91;5070386;28;20237;-44
2023/10/11 01:45:18;;;;;;;6.70;5.40;;;;;;;13.59;94.78;95338.47;5069692;28;20230;-45
2023/10/11 01:47:47;;;;;;;7.40;5.37;;;;;;;13.59;94.62;95351.31;5071546;28;20186;-46
2023/10/11 01:50:15;;;;;;;6.57;5.43;;;;;;;13.58;94.76;95360.00;5070091;28;20577;-44
2023/10/11 01:52:42;;;;;;;8.33;5.33;;;;;;;13.53;95.66;95346.75;5070630;28;20270;-44
2023/10/11 01:55:11;;;;;;;10.87;5.43;;;;;;;13.59;95.74;95347.94;5069382;28;20208;-43
2023/10/11 01:57:41;;;;;;;10.73;6.17;;;;;;;13.63;95.15;95352.66;5070231;28;20215;-45
2023/10/11 02:00:13;;;;;;;12.33;5.60;;;;;;;13.59;95.37;95350.50;5069888;28;20229;-41
2023/10/11 02:02:45;;;;;;;7.93;5.20;;;;;;;13.57;95.16;95360.94;5069828;28;20202;-45
2023/10/11 02:05:13;;;;;;;5.47;4.23;;;;;;;13.53;93.95;95362.16;5069775;28;20224;-44
2023/10/11 02:07:40;;;;;;;6.97;3.73;;;;;;;13.46;93.70;95363.66;5069970;28;20198;-45
2023/10/11 02:10:11;;;;;;;5.67;4.10;;;;;;;13.44;93.80;95357.88;5069775;28;20791;-43
2023/10/11 02:12:44;;;;;;;7.40;4.17;;;;;;;13.28;93.51;95337.88;5069697;28;20186;-45
2023/10/11 02:15:21;;;;;;;5.77;4.57;;;;;;;12.64;93.21;95239.16;5070108;28;20190;-44
2023/10/11 02:17:49;;;;;;;8.80;4.70;;;;;;;13.38;93.28;95358.41;5069698;28;20182;-44
2023/10/11 02:20:20;;;;;;;7.20;4.07;;;;;;;13.39;93.28;95367.75;5069405;28;20194;-45
2023/10/11 02:22:50;;;;;;;6.13;4.23;;;;;;;13.38;93.23;95366.09;5069764;28;20194;-42
2023/10/11 02:25:17;;;;;;;4.47;3.87;;;;;;;13.37;92.80;95361.94;5069309;28;20230;-44
2023/10/11 02:27:45;;;;;;;6.80;4.03;;;;;;;13.38;92.75;95363.53;5069566;28;20182;-44
2023/10/11 02:30:19;;;;;;;6.97;4.10;;;;;;;13.42;92.37;95368.25;5069281;28;20191;-45
2023/10/11 02:32:46;;;;;;;3.80;3.40;;;;;;;13.42;92.45;95370.03;5069446;28;20252;-43
2023/10/11 02:35:13;;;;;;;6.63;3.77;;;;;;;13.38;92.50;95372.06;5069580;28;20197;-43
2023/10/11 02:37:42;;;;;;;5.33;3.83;;;;;;;13.38;92.46;95369.50;5069671;28;20186;-43
2023/10/11 02:40:10;;;;;;;6.17;4.23;;;;;;;13.36;92.47;95368.84;5069826;28;20577;-43
2023/10/11 02:42:37;;;;;;;4.13;3.73;;;;;;;13.38;92.33;95372.06;5069681;28;20277;-45
2023/10/11 02:45:07;;;;;;;6.47;3.80;;;;;;;13.22;92.26;95354.66;5069830;28;20317;-43
2023/10/11 02:47:35;;;;;;;5.00;4.07;;;;;;;13.43;92.41;95387.91;5068176;28;20230;-43
2023/10/11 02:50:06;;;;;;;6.07;4.57;;;;;;;13.48;92.52;95388.28;5072330;28;20224;-45
2023/10/11 02:52:36;;;;;;;13.07;5.27;;;;;;;13.48;92.44;95387.47;5081402;28;20637;-45
2023/10/11 02:55:16;;;;;;;4.93;4.33;;;;;;;13.49;92.77;95387.31;5071799;28;20195;-45
2023/10/11 02:57:43;;;;;;;6.07;4.50;;;;;;;13.48;93.23;95395.19;5069177;28;20774;-44
2023/10/11 03:00:21;;;;;;;9.07;5.13;;;;;;;13.45;93.54;95388.56;5069148;28;20218;-43
2023/10/11 03:02:54;;;;;;;7.03;5.73;;;;;;;13.42;93.48;95396.53;5069464;28;20183;-44
2023/10/11 03:05:26;;;;;;;8.83;6.03;;;;;;;13.37;93.47;95392.75;5069319;28;20214;-44
2023/10/11 03:07:55;;;;;;;11.60;7.10;;;;;;;13.28;93.95;95391.81;5069233;28;20187;-44
2023/10/11 03:10:22;;;;;;;13.33;8.10;;;;;;;13.29;93.80;95398.56;5069923;28;20194;-47
2023/10/11 03:12:50;;;;;;;12.97;8.00;;;;;;;13.23;93.83;95404.28;5072054;28;20190;-44
2023/10/11 03:15:20;;;;;;;10.37;6.83;;;;;;;13.16;93.86;95403.16;5069315;28;20752;-43
2023/10/11 03:17:52;;;;;;;9.53;7.20;;;;;;;12.95;94.07;95388.72;5068914;28;20203;-45
2023/10/11 03:20:30;;;;;;;11.33;7.00;;;;;;;13.01;94.11;95413.03;5069397;28;20190;-45
2023/10/11 03:22:59;;;;;;;9.07;6.43;;;;;;;12.81;94.33;95386.53;5069571;28;20198;-46
2023/10/11 03:25:29;;;;;;;9.83;6.07;;;;;;;12.91;94.38;95412.19;5069257;28;20255;-44
2023/10/11 03:27:56;;;;;;;10.03;5.53;;;;;;;12.86;94.52;95415.16;5069759;28;20186;-44
2023/10/11 03:30:25;;;;;;;7.13;5.90;;;;;;;12.85;94.55;95417.88;5069105;28;20216;-44
2023/10/11 03:32:52;;;;;;;6.40;4.93;;;;;;;12.86;94.57;95417.72;5068878;28;20570;-44
2023/10/11 03:35:19;;;;;;;7.87;4.83;;;;;;;12.82;94.94;95421.50;5069217;28;20198;-44
2023/10/11 03:37:57;;;;;;;11.07;5.80;;;;;;;12.73;95.30;95414.63;5068887;28;20186;-45
2023/10/11 03:40:34;;;;;;;7.00;5.20;;;;;;;12.71;95.43;95421.66;5069947;28;20622;-45
2023/10/11 03:43:16;;;;;;;7.97;5.53;;;;;;;12.70;95.76;95425.97;5069656;28;20236;-44
2023/10/11 03:45:49;;;;;;;7.90;6.03;;;;;;;12.68;95.95;95427.84;5072410;28;20222;-43
2023/10/11 03:48:16;;;;;;;7.43;5.20;;;;;;;12.67;96.09;95427.97;5073123;28;20874;-45
2023/10/11 03:50:47;;;;;;;8.87;5.83;;;;;;;12.66;96.02;95434.06;5072441;28;20218;-43
2023/10/11 03:53:15;;;;;;;11.17;5.10;;;;;;;12.64;96.22;95439.31;5072624;28;20252;-43
2023/10/11 03:55:46;;;;;;;6.60;5.53;;;;;;;12.65;96.09;95432.41;5072577;28;20182;-43
2023/10/11 03:58:25;;;;;;;13.83;5.43;;;;;;;12.64;96.04;95429.03;5072531;28;20240;-44
2023/10/11 04:01:06;;;;;;;7.93;5.60;;;;;;;12.63;95.75;95429.19;5072050;28;20226;-43
2023/10/11 04:03:34;;;;;;;6.63;5.47;;;;;;;12.71;95.83;95435.28;5072512;28;20190;-44
2023/10/11 04:06:00;;;;;;;9.60;4.90;;;;;;;12.70;95.83;95440.56;5072029;28;20248;-51
2023/10/11 04:08:27;;;;;;;10.43;5.57;;;;;;;12.70;95.93;95450.81;5072400;28;20183;-44
2023/10/11 04:10:54;;;;;;;8.13;5.53;;;;;;;12.70;95.76;95443.94;5072656;28;20248;-43
2023/10/11 04:13:26;;;;;;;7.40;5.33;;;;;;;12.77;96.21;95441.63;5072890;28;20182;-42
2023/10/11 04:15:55;;;;;;;9.07;5.80;;;;;;;12.90;96.39;95446.53;5072791;28;20312;-41
2023/10/11 04:18:36;;;;;;;7.57;5.40;;;;;;;12.95;95.87;95445.19;5072957;28;20270;-43
2023/10/11 04:21:16;;;;;;;10.17;6.17;;;;;;;13.03;95.03;95460.72;5072095;28;20178;-43
2023/10/11 04:23:46;;;;;;;10.00;5.67;;;;;;;13.03;94.79;95457.34;5072074;28;20193;-44
2023/10/11 04:26:33;;;;;;;11.13;5.93;;;;;;;13.04;94.84;95459.00;5072001;28;20211;-42
2023/10/11 04:29:06;;;;;;;8.63;5.90;;;;;;;13.01;94.87;95454.13;5071888;28;20194;-42
2023/10/11 04:31:54;;;;;;;10.97;5.27;;;;;;;12.95;94.48;95450.34;5071840;28;20560;-43
2023/10/11 04:34:31;;;;;;;8.70;5.57;;;;;;;12.90;94.56;95442.19;5071812;28;20240;-44
2023/10/11 04:36:59;;;;;;;11.77;6.20;;;;;;;12.95;94.69;95455.47;5072183;28;20364;-44
2023/10/11 04:39:33;;;;;;;10.00;5.60;;;;;;;12.84;94.62;95427.34;5071774;28;20190;-44
2023/10/11 04:42:02;;;;;;;11.67;5.53;;;;;;;13.02;94.43;95466.81;5071637;28;20585;-46
2023/10/11 04:44:34;;;;;;;5.80;4.70;;;;;;;13.03;94.22;95457.34;5071446;28;20187;-44
2023/10/11 04:47:00;;;;;;;10.40;5.43;;;;;;;13.05;94.02;95463.16;5071797;28;20214;-44
2023/10/11 04:49:30;;;;;;;7.87;5.00;;;;;;;13.09;93.61;95477.38;5072435;28;20213;-43
2023/10/11 04:51:57;;;;;;;8.70;5.17;;;;;;;13.10;93.64;95468.72;5071605;28;20225;-46
2023/10/11 04:54:35;;;;;;;6.33;5.27;;;;;;;13.16;93.37;95473.31;5071059;28;20190;-44
2023/10/11 04:57:08;;;;;;;8.37;5.77;;;;;;;12.94;93.23;95432.47;5071769;28;20194;-44
2023/10/11 04:59:36;;;;;;;9.70;5.20;;;;;;;13.22;92.82;95474.53;5071163;28;20194;-44
2023/10/11 05:02:11;;;;;;;8.87;5.00;;;;;;;13.19;92.51;95478.19;5071406;28;20230;-46
2023/10/11 05:04:44;;;;;;;7.27;5.67;;;;;;;13.10;92.60;95480.75;5071112;28;20317;-44
2023/10/11 05:07:13;;;;;;;11.67;6.00;;;;;;;13.09;92.75;95482.50;5071555;28;20232;-44
2023/10/11 05:09:41;;;;;;;9.30;5.80;;;;;;;13.12;92.78;95489.91;5071085;28;20745;-44
2023/10/11 05:12:10;;;;;;;5.93;5.20;;;;;;;13.12;93.03;95489.13;5071295;28;20190;-45
2023/10/11 05:14:40;;;;;;;6.60;5.43;;;;;;;13.09;92.81;95487.66;5071072;28;20194;-45
2023/10/11 05:17:32;;;;;;;14.30;5.87;;;;;;;13.02;92.99;95477.06;5071309;28;20216;-46
2023/10/11 05:22:49;;;;;;;11.27;5.67;;;;;;;13.29;92.45;95498.75;5070978;28;20185;-45
2023/10/11 05:25:37;;;;;;;6.63;5.13;;;;;;;13.35;92.29;95500.81;5070913;28;20218;-45
2023/10/11 05:28:26;;;;;;;8.03;5.30;;;;;;;13.27;92.19;95482.69;5070610;28;20226;-45
2023/10/11 05:31:19;;;;;;;11.37;5.70;;;;;;;13.41;91.60;95495.13;5071109;28;20274;-45
2023/10/11 05:33:59;;;;;;;12.43;5.60;;;;;;;13.59;91.43;95502.16;5071272;28;20186;-45
2023/10/11 05:36:48;;;;;;;8.03;6.33;;;;;;;13.67;91.12;95505.66;5070536;28;20198;-45
2023/10/11 05:52:58;;;;;;;17.73;6.97;;;;;;;14.60;87.78;95504.13;5070284;28;20228;-44
2023/10/11 05:55:25;;;;;;;10.57;6.73;;;;;;;14.92;86.32;95513.16;5070562;28;20194;-44
2023/10/11 05:57:52;;;;;;;9.03;5.87;;;;;;;15.25;84.44;95517.72;5070220;28;20776;-44
2023/10/11 06:00:25;;;;;;;12.77;5.83;;;;;;;15.51;82.04;95512.66;5069985;28;20222;-44
2023/10/11 06:02:53;;;;;;;11.77;6.53;;;;;;;15.84;80.53;95533.56;5070194;28;20281;-44
2023/10/11 06:05:23;;;;;;;11.10;7.10;;;;;;;16.06;79.90;95524.53;5069440;28;20665;-43
2023/10/11 06:08:00;;;;;;;14.97;7.10;;;;;;;16.31;78.26;95536.63;5070186;28;20179;-44
2023/10/11 06:10:41;;;;;;;15.03;6.97;;;;;;;16.46;77.32;95538.69;5070339;28;20190;-43
2023/10/11 06:13:13;;;;;;;16.43;6.70;;;;;;;16.50;77.00;95540.00;5069836;28;20267;-43
2023/10/11 06:15:58;;;;;;;10.77;6.60;;;;;;;16.62;76.41;95554.22;5070063;28;20281;-41
2023/10/11 06:18:56;;;;;;;13.30;5.67;;;;;;;16.70;75.57;95553.47;5069934;28;20193;-43
2023/10/11 06:21:33;;;;;;;11.67;6.33;;;;;;;16.75;75.64;95551.25;5069553;28;20191;-43
2023/10/11 06:24:04;;;;;;;12.90;6.77;;;;;;;16.98;74.24;95562.69;5069926;28;20243;-42
2023/10/11 06:29:29;;;;;;;15.10;7.00;;;;;;;17.38;73.36;95563.78;5047518;28;20190;-43
2023/10/11 06:31:56;;;;;;;12.80;6.70;;;;;;;17.50;72.54;95553.94;5047195;28;20563;-43
2023/10/11 06:34:32;;;;;;;12.23;7.73;;;;;;;17.73;71.19;95564.47;5047443;28;20246;-45
2023/10/11 06:37:00;;;;;;;8.60;6.37;;;;;;;17.91;70.44;95570.34;5046930;28;20639;-45
2023/10/11 06:42:21;;;;;;;11.63;6.60;;;;;;;18.15;68.55;95581.69;5047409;28;20237;-43
2023/10/11 06:44:48;;;;;;;12.83;6.47;;;;;;;18.13;68.50;95568.88;5046957;28;20201;-43
2023/10/11 06:47:15;;;;;;;10.33;6.73;;;;;;;18.30;66.78;95562.72;5047192;28;20225;-44
2023/10/11 06:49:44;;;;;;;13.63;6.90;;;;;;;18.48;66.48;95585.88;5046769;28;20191;-44
2023/10/11 06:52:11;;;;;;;14.43;6.53;;;;;;;18.61;65.79;95580.19;5046935;28;20309;-42
2023/10/11 06:54:38;;;;;;;11.63;6.47;;;;;;;18.67;64.74;95589.88;5047040;28;20195;-44
2023/10/11 06:57:07;;;;;;;14.43;6.37;;;;;;;18.76;64.46;95590.69;5047049;28;20586;-44
2023/10/11 06:59:35;;;;;;;11.50;6.57;;;;;;;18.79;64.38;95593.75;5047073;28;20252;-45
2023/10/11 07:02:02;;;;;;;8.20;5.30;;;;;;;18.98;64.06;95579.59;5046641;28;20265;-45
2023/10/11 07:04:36;;;;;;;10.93;6.03;;;;;;;19.31;62.66;95576.88;5066281;28;20194;-45
2023/10/11 07:07:07;;;;;;;9.20;5.57;;;;;;;19.63;61.90;95581.09;5069269;28;20309;-44
2023/10/11 07:09:39;;;;;;;11.90;6.17;;;;;;;19.90;60.17;95577.19;5069847;28;20233;-44
2023/10/11 07:12:28;;;;;;;9.23;6.37;;;;;;;20.14;59.05;95572.78;5073722;28;20191;-45
2023/10/11 07:14:58;;;;;;;13.87;5.67;;;;;;;20.11;59.05;95565.34;5070197;28;20237;-45
2023/10/11 07:17:28;;;;;;;14.73;5.27;;;;;;;20.05;59.04;95559.88;5074764;28;20229;-60
2023/10/11 07:19:57;;;;;;;8.40;5.13;;;;;;;20.03;58.48;95556.66;5076707;28;20198;-45
2023/10/11 07:22:26;;;;;;;15.43;5.63;;;;;;;19.86;58.74;95531.81;5073810;28;20183;-44
2023/10/11 07:24:58;;;;;;;8.53;5.83;;;;;;;20.10;58.48;95556.75;5071847;28;20610;-46
2023/10/11 07:27:37;;;;;;;8.60;5.77;;;;;;;20.30;58.46;95557.06;5072993;28;20631;-44
2023/10/11 07:30:16;;;;;;;14.63;6.43;;;;;;;20.54;57.91;95551.66;5071682;28;20728;-45
2023/10/11 07:32:44;;;;;;;16.80;6.00;;;;;;;20.77;57.53;95548.19;5072968;28;20197;-45
2023/10/11 07:35:27;;;;;;;8.60;5.65;;;;;;;21.02;56.14;95549.47;5072858;28;20222;-46
2023/10/11 07:37:56;;;;;;;13.13;5.95;;;;;;;21.16;55.07;95542.69;5072528;28;20221;-44
2023/10/11 07:40:33;;;;;;;8.07;5.03;;;;;;;21.26;55.05;95551.00;5072814;28;20228;-44
2023/10/11 07:43:00;;;;;;;7.63;4.32;;;;;;;;;;5073176;28;20182;-45
2023/10/11 07:45:29;;;;;;;8.52;4.82;;;;;;;21.54;53.68;95553.75;5072617;28;20299;-45
2023/10/11 07:47:55;;;;;;;5.35;4.60;;;;;;;21.69;53.31;95571.91;5072633;28;20225;-45
2023/10/11 07:50:23;;;;;;;9.63;4.20;;;;;;;21.41;53.01;95501.53;5072314;28;20201;-44
2023/10/11 07:52:50;;;;;;;8.52;4.50;;;;;;;21.96;52.40;95566.94;5072664;28;20183;-46
2023/10/11 07:55:17;;;;;;;10.27;4.60;;;;;;;22.01;52.45;95564.59;5072602;28;20248;-44
2023/10/11 07:57:46;;;;;;;8.68;4.80;;;;;;;22.03;52.00;95567.81;5072913;28;20562;-45
2023/10/11 08:00:17;;;;;;;6.30;5.10;;;;;;;22.11;51.57;95567.69;5072172;28;20226;-43
2023/10/11 08:02:56;;;;;;;8.20;4.57;;;;;;;22.20;50.85;95569.19;5072737;28;20581;-44
2023/10/11 08:05:25;;;;;;;7.45;5.22;;;;;;;22.09;51.00;95574.06;5072151;28;20194;-43
2023/10/11 08:07:52;;;;;;;20.90;5.32;;;;;;;21.97;51.18;95569.34;5072456;28;20709;-44
2023/10/11 08:10:29;;;;;;;8.88;5.07;;;;;;;21.70;51.76;95572.72;5072132;28;20190;-43
2023/10/11 08:12:58;;;;;;;10.25;4.78;;;;;;;21.37;52.91;95573.16;5072327;28;20689;-43
2023/10/11 08:15:25;;;;;;;5.45;4.47;;;;;;;21.35;52.97;95580.34;5072276;28;20186;-43
2023/10/11 08:17:53;;;;;;;7.18;5.32;;;;;;;21.39;52.73;95579.00;5072359;28;20313;-43
2023/10/11 08:20:28;;;;;;;12.50;4.97;;;;;;;21.46;52.88;95581.66;5072107;28;20372;-44
2023/10/11 08:22:57;;;;;;;6.70;5.13;;;;;;;21.67;52.07;95583.47;5073379;28;20189;-42
2023/10/11 08:25:27;;;;;;;6.57;4.75;;;;;;;21.74;51.74;95579.16;5072199;28;20186;-45
2023/10/11 08:28:12;;;;;;;6.85;5.03;;;;;;;21.96;50.73;95577.38;5071874;28;20271;-45
2023/10/11 08:30:45;;;;;;;5.75;5.03;;;;;;;21.90;50.45;95584.13;5071338;28;20731;-44
2023/10/11 08:33:15;;;;;;;6.35;4.55;;;;;;;21.82;51.34;95586.84;5072171;28;20673;-44
2023/10/11 08:35:46;;;;;;;8.70;5.30;;;;;;;21.76;51.49;95582.38;5071811;28;20193;-43
2023/10/11 08:38:16;;;;;;;6.13;5.38;;;;;;;21.67;51.39;95575.69;5072188;28;20201;-43
2023/10/11 08:40:43;;;;;;;10.82;4.95;;;;;;;21.57;51.65;95581.19;5071608;28;20206;-45
2023/10/11 08:43:15;;;;;;;6.32;4.65;;;;;;;21.57;51.70;95572.56;5072123;28;20190;-42
2023/10/11 08:45:48;;;;;;;6.68;4.70;;;;;;;21.63;51.25;95566.63;5071607;28;20257;-44
2023/10/11 08:48:17;;;;;;;8.82;5.47;;;;;;;21.59;51.21;95571.41;5071896;28;20705;-44
2023/10/11 08:50:51;;;;;;;6.80;5.07;;;;;;;21.46;51.71;95564.25;5071338;28;20681;-44
2023/10/11 08:53:21;;;;;;;7.65;4.60;;;;;;;21.42;52.04;95568.22;5071697;28;20197;-44
2023/10/11 08:55:54;;;;;;;7.00;5.00;;;;;;;21.45;52.14;95564.44;5071345;28;20182;-44
2023/10/11 08:58:27;;;;;;;12.63;5.00;;;;;;;21.46;52.20;95563.44;5071946;28;20282;-44
2023/10/11 09:00:55;;;;;;;7.43;4.82;;;;;;;21.44;52.57;95578.44;5071152;28;20775;-46
2023/10/11 09:03:26;;;;;;;8.85;4.60;;;;;;;21.34;52.41;95564.91;5071242;28;20194;-44
2023/10/11 09:05:59;;;;;;;7.50;4.97;;;;;;;21.32;52.54;95572.91;5071271;28;20229;-43
2023/10/11 09:08:31;;;;;;;8.82;4.68;;;;;;;21.23;52.32;95581.75;5069740;28;20275;-44
2023/10/11 09:11:28;;;;;;;6.38;4.72;;;;;;;21.12;52.65;95577.03;5071105;28;20182;-45
2023/10/11 09:14:10;;;;;;;13.35;4.28;;;;;;;21.00;52.81;95576.69;5070832;28;20197;-45
2023/10/11 09:16:37;;;;;;;8.40;4.50;;;;;;;20.84;53.31;95576.84;5070735;28;20198;-43
2023/10/11 09:19:10;;;;;;;7.15;4.97;;;;;;;20.85;53.56;95581.88;5071209;28;20202;-44
2023/10/11 09:21:38;;;;;;;11.27;5.40;;;;;;;20.59;54.30;95551.13;5070944;28;20190;-46
2023/10/11 09:24:23;;;;;;;7.50;4.85;;;;;;;20.72;54.07;95577.28;5071064;28;20182;-46
2023/10/11 09:27:12;;;;;;;9.00;5.18;;;;;;;20.57;54.48;95573.09;5070856;28;20311;-44
2023/10/11 09:29:39;;;;;;;5.72;5.20;;;;;;;20.47;54.53;95573.31;5070620;28;20285;-45
2023/10/11 09:32:07;;;;;;;6.10;5.05;;;;;;;20.33;55.07;95567.09;5070643;28;20190;-45
2023/10/11 09:34:41;;;;;;;7.43;5.32;;;;;;;20.26;55.18;95567.00;5070782;28;20191;-45
2023/10/11 09:37:11;;;;;;;7.65;5.05;;;;;;;20.28;55.30;95566.81;5070504;28;20269;-46
2023/10/11 09:39:38;;;;;;;11.10;4.95;;;;;;;20.39;55.02;95566.41;5070319;28;20201;-44
2023/10/11 09:42:05;;;;;;;8.43;4.90;;;;;;;20.26;55.08;95537.63;5069564;28;20624;-44
2023/10/11 09:44:37;;;;;;;8.48;4.93;;;;;;;20.44;55.03;95561.47;5070710;28;20183;-46
2023/10/11 09:47:05;;;;;;;6.85;4.70;;;;;;;20.46;54.93;95556.09;5070362;28;20743;-47
2023/10/11 09:49:41;;;;;;;6.47;4.65;;;;;;;20.39;55.13;95544.81;5070757;28;20249;-46
2023/10/11 09:52:10;;;;;;;6.03;4.95;;;;;;;20.49;55.14;95548.78;5070318;28;20663;-45
2023/10/11 09:54:39;;;;;;;7.35;5.10;;;;;;;20.48;55.15;95547.19;5070687;28;20199;-46
2023/10/11 09:57:16;;;;;;;8.73;5.03;;;;;;;20.43;55.47;95543.47;5070084;28;20207;-46
2023/10/11 09:59:49;;;;;;;5.43;4.70;;;;;;;20.48;55.26;95548.97;5069773;28;20273;-46
2023/10/11 10:02:22;;;;;;;4.70;4.30;;;;;;;20.38;55.50;95546.59;5069961;28;20581;-45
2023/10/11 10:04:57;;;;;;;6.95;4.40;;;;;;;20.44;55.50;95540.69;5070233;28;20312;-45
2023/10/11 10:07:32;;;;;;;6.78;5.35;;;;;;;20.49;55.59;95541.00;5070015;28;20303;-45
2023/10/11 10:10:01;;;;;;;7.15;4.60;;;;;;;20.52;55.34;95543.25;5070010;28;20190;-44
2023/10/11 10:12:33;;;;;;;6.25;4.88;;;;;;;20.63;55.11;95535.97;5069679;28;20650;-45
2023/10/11 10:15:09;;;;;;;8.75;4.90;;;;;;;20.61;55.22;95522.38;5069478;28;20198;-46
2023/10/11 10:17:38;;;;;;;4.78;4.25;;;;;;;20.62;54.77;95519.56;5069515;28;20255;-45
2023/10/11 10:20:46;;;;;;;6.38;4.55;;;;;;;20.66;54.62;95525.22;5070224;28;20194;-43
2023/10/11 10:23:29;;;;;;;6.25;4.32;;;;;;;20.61;54.93;95514.56;5069385;28;20245;-45
2023/10/11 10:26:39;;;;;;;9.30;5.25;;;;;;;20.58;55.14;95515.72;5069258;28;20668;-45
2023/10/11 10:29:11;;;;;;;13.25;4.93;;;;;;;20.47;55.27;95510.97;5069499;28;20638;-43
2023/10/11 10:32:06;;;;;;;10.13;4.38;;;;;;;20.53;55.46;95516.25;5069589;28;20190;-44
2023/10/11 10:34:32;;;;;;;4.78;4.20;;;;;;;20.62;55.33;95508.38;5069341;28;20646;-44
2023/10/11 10:37:05;;;;;;;5.55;4.05;;;;;;;20.69;54.44;95502.28;5069863;28;20186;-44
2023/10/11 10:39:46;;;;;;;4.68;4.10;;;;;;;20.72;54.36;95506.28;5068212;28;20202;-45
2023/10/11 10:42:15;;;;;;;6.20;4.45;;;;;;;20.80;54.10;95501.81;5069604;28;20193;-44
2023/10/11 10:44:54;;;;;;;5.35;4.30;;;;;;;20.85;54.17;95488.25;5069373;28;20211;-44
2023/10/11 10:47:28;;;;;;;4.97;4.45;;;;;;;21.01;53.54;95482.06;5069422;28;20225;-43
2023/10/11 10:49:57;;;;;;;5.30;4.00;;;;;;;20.99;53.70;95474.44;5069708;28;20814;-44
2023/10/11 10:52:25;;;;;;;4.82;4.18;;;;;;;21.08;53.59;95479.53;5068993;28;20200;-44
2023/10/11 10:55:01;;;;;;;8.38;4.05;;;;;;;21.09;52.92;95473.34;5069478;28;20548;-45
2023/10/11 10:57:27;;;;;;;7.07;4.50;;;;;;;21.12;53.07;95468.59;5069569;28;20294;-46
2023/10/11 10:59:55;;;;;;;5.35;4.32;;;;;;;21.21;53.09;95477.88;5071425;28;20194;-45
2023/10/11 11:02:23;;;;;;;5.63;4.25;;;;;;;21.22;52.71;95473.47;5069160;28;20193;-45
2023/10/11 11:04:48;;;;;;;7.20;4.45;;;;;;;21.28;52.63;95470.13;5069641;28;20182;-45
2023/10/11 11:07:26;;;;;;;4.95;3.78;;;;;;;21.24;51.58;95445.47;5069203;28;20255;-44
2023/10/11 11:09:54;;;;;;;5.80;4.07;;;;;;;21.11;52.36;95447.94;5069749;28;20273;-46
2023/10/11 11:12:28;;;;;;;15.85;4.00;;;;;;;21.00;52.69;95468.25;5069442;28;20269;-45
2023/10/11 11:14:56;;;;;;;5.90;4.13;;;;;;;21.01;52.76;95463.84;5069128;28;20672;-43
2023/10/11 11:17:24;;;;;;;6.13;4.15;;;;;;;20.97;52.83;95445.19;5069253;28;20188;-44
2023/10/11 11:20:14;;;;;;;4.55;4.15;;;;;;;21.19;52.39;95458.25;5069187;28;20282;-44
2023/10/11 11:22:42;;;;;;;6.22;3.67;;;;;;;21.33;52.10;95464.41;5067593;28;20209;-45
2023/10/11 11:25:26;;;;;;;4.93;3.95;;;;;;;21.38;51.61;95459.47;5069617;28;20179;-44
2023/10/11 11:28:05;;;;;;;4.95;3.78;;;;;;;21.30;51.21;95461.16;5069175;28;20210;-45
2023/10/11 11:30:33;;;;;;;4.30;3.83;;;;;;;21.27;51.10;95453.72;5069499;28;20190;-47
2023/10/11 11:33:08;;;;;;;6.22;3.60;;;;;;;21.17;51.56;95455.84;5068877;28;20879;-46
2023/10/11 11:35:43;;;;;;;5.35;4.03;;;;;;;21.14;51.79;95453.59;5070511;28;20193;-44
2023/10/11 11:38:20;;;;;;;7.45;4.35;;;;;;;21.02;52.08;95442.06;5069653;28;20182;-47
2023/10/11 11:40:47;;;;;;;4.22;3.83;;;;;;;21.12;52.51;95445.19;5073918;28;20281;-47
2023/10/11 11:43:17;;;;;;;7.38;3.50;;;;;;;21.20;51.69;95442.47;5082644;28;20210;-45
2023/10/11 11:45:44;;;;;;;4.63;3.38;;;;;;;21.22;51.48;95448.28;5075328;28;20226;-45
2023/10/11 11:48:22;;;;;;;4.30;3.85;;;;;;;21.23;50.94;95434.25;5068639;28;20263;-45
2023/10/11 11:50:50;;;;;;;6.13;3.33;;;;;;;21.30;50.93;95440.34;5069090;28;20266;-45
2023/10/11 11:53:22;;;;;;;6.15;3.15;;;;;;;21.40;50.56;95436.66;5069898;28;20208;-45
2023/10/11 11:55:48;;;;;;;4.07;3.42;;;;;;;21.40;50.32;95447.06;5067473;28;20217;-44
2023/10/11 11:58:17;;;;;;;4.65;3.35;;;;;;;21.41;50.52;95431.25;5068626;28;20217;-44
2023/10/11 12:00:45;;;;;;;4.50;3.13;;;;;;;21.56;50.21;95435.59;5068835;28;20231;-45
2023/10/11 12:03:13;;;;;;;5.82;3.22;;;;;;;21.60;50.17;95442.06;5068512;28;20273;-44
2023/10/11 12:05:40;;;;;;;4.35;3.72;;;;;;;21.61;50.18;95439.25;5072194;28;20197;-45
2023/10/11 12:08:12;;;;;;;4.00;3.60;;;;;;;21.22;50.42;95372.03;5072016;28;20247;-46
2023/10/11 12:10:47;;;;;;;4.90;3.40;;;;;;;21.65;49.83;95426.66;5072229;28;20216;-44
2023/10/11 12:13:22;;;;;;;4.38;3.88;;;;;;;21.71;50.01;95433.72;5072247;28;20281;-43
2023/10/11 12:15:54;;;;;;;7.75;3.25;;;;;;;21.72;49.44;95430.13;5072109;28;20275;-44